sensor_id;sensor_type;location;lat;lon;timestamp;temperature;humidity
69162;DHT22;56269;51.738;21.652;2023-03-13T00:01:10;0.36;89.80
69162;DHT22;56269;51.738;21.652;2023-03-13T00:03:37;0.35;90.16
69162;DHT22;56269;51.738;21.652;2023-03-13T00:06:03;0.36;89.73
69162;DHT22;56269;51.738;21.652;2023-03-13T00:08:29;0.41;89.69
69162;DHT22;56269;51.738;21.652;2023-03-13T00:10:56;0.42;89.72
69162;DHT22;56269;51.738;21.652;2023-03-13T00:13:23;0.46;89.41
69162;DHT22;56269;51.738;21.652;2023-03-13T00:15:50;0.42;89.96
69162;DHT22;56269;51.738;21.652;2023-03-13T00:18:24;0.46;89.27
69162;DHT22;56269;51.738;21.652;2023-03-13T00:21:03;0.43;90.31
69162;DHT22;56269;51.738;21.652;2023-03-13T00:23:31;0.41;90.31
69162;DHT22;56269;51.738;21.652;2023-03-13T00:25:59;0.46;90.05
69162;DHT22;56269;51.738;21.652;2023-03-13T00:28:28;0.45;90.01
69162;DHT22;56269;51.738;21.652;2023-03-13T00:31:10;0.45;90.28
69162;DHT22;56269;51.738;21.652;2023-03-13T00:33:39;0.50;89.53
69162;DHT22;56269;51.738;21.652;2023-03-13T00:36:18;0.53;89.52
69162;DHT22;56269;51.738;21.652;2023-03-13T00:38:46;0.60;88.68
69162;DHT22;56269;51.738;21.652;2023-03-13T00:41:17;0.56;88.86
69162;DHT22;56269;51.738;21.652;2023-03-13T00:43:44;0.52;89.72
69162;DHT22;56269;51.738;21.652;2023-03-13T00:46:12;0.62;88.88
69162;DHT22;56269;51.738;21.652;2023-03-13T00:48:39;0.62;88.32
69162;DHT22;56269;51.738;21.652;2023-03-13T00:51:06;0.62;88.99
69162;DHT22;56269;51.738;21.652;2023-03-13T00:53:33;0.59;89.61
69162;DHT22;56269;51.738;21.652;2023-03-13T00:58:27;0.77;87.96
69162;DHT22;56269;51.738;21.652;2023-03-13T01:00:55;0.81;87.47
69162;DHT22;56269;51.738;21.652;2023-03-13T01:03:22;0.81;87.65
69162;DHT22;56269;51.738;21.652;2023-03-13T01:06:00;0.85;87.56
69162;DHT22;56269;51.738;21.652;2023-03-13T01:08:27;0.83;87.89
69162;DHT22;56269;51.738;21.652;2023-03-13T01:10:58;0.81;87.69
69162;DHT22;56269;51.738;21.652;2023-03-13T01:13:24;0.80;87.84
69162;DHT22;56269;51.738;21.652;2023-03-13T01:15:51;0.85;87.70
69162;DHT22;56269;51.738;21.652;2023-03-13T01:18:16;0.85;88.02
69162;DHT22;56269;51.738;21.652;2023-03-13T01:20:44;0.94;87.36
69162;DHT22;56269;51.738;21.652;2023-03-13T01:23:10;1.05;86.81
69162;DHT22;56269;51.738;21.652;2023-03-13T01:25:36;1.05;87.07
69162;DHT22;56269;51.738;21.652;2023-03-13T01:28:03;1.13;86.91
69162;DHT22;56269;51.738;21.652;2023-03-13T01:30:29;1.15;86.78
69162;DHT22;56269;51.738;21.652;2023-03-13T01:32:56;1.14;87.06
69162;DHT22;56269;51.738;21.652;2023-03-13T01:35:22;1.15;87.82
69162;DHT22;56269;51.738;21.652;2023-03-13T01:37:48;1.18;87.09
69162;DHT22;56269;51.738;21.652;2023-03-13T01:40:15;1.20;87.80
69162;DHT22;56269;51.738;21.652;2023-03-13T01:42:52;1.20;87.81
69162;DHT22;56269;51.738;21.652;2023-03-13T01:45:51;1.11;89.22
69162;DHT22;56269;51.738;21.652;2023-03-13T01:48:20;1.07;89.56
69162;DHT22;56269;51.738;21.652;2023-03-13T01:50:47;1.03;90.44
69162;DHT22;56269;51.738;21.652;2023-03-13T01:53:13;1.01;91.13
69162;DHT22;56269;51.738;21.652;2023-03-13T01:55:40;0.98;91.13
69162;DHT22;56269;51.738;21.652;2023-03-13T01:58:06;0.91;91.55
69162;DHT22;56269;51.738;21.652;2023-03-13T02:00:34;0.85;91.81
69162;DHT22;56269;51.738;21.652;2023-03-13T02:03:10;0.91;91.95
69162;DHT22;56269;51.738;21.652;2023-03-13T02:05:37;0.87;91.36
69162;DHT22;56269;51.738;21.652;2023-03-13T02:08:12;0.83;92.54
69162;DHT22;56269;51.738;21.652;2023-03-13T02:10:43;0.87;91.85
69162;DHT22;56269;51.738;21.652;2023-03-13T02:13:14;0.94;91.15
69162;DHT22;56269;51.738;21.652;2023-03-13T02:15:42;0.90;92.07
69162;DHT22;56269;51.738;21.652;2023-03-13T02:18:09;0.84;92.27
69162;DHT22;56269;51.738;21.652;2023-03-13T02:20:38;0.77;92.86
69162;DHT22;56269;51.738;21.652;2023-03-13T02:23:34;0.76;92.35
69162;DHT22;56269;51.738;21.652;2023-03-13T02:26:05;0.84;91.96
69162;DHT22;56269;51.738;21.652;2023-03-13T02:28:33;0.88;91.72
69162;DHT22;56269;51.738;21.652;2023-03-13T02:31:00;0.91;91.82
69162;DHT22;56269;51.738;21.652;2023-03-13T02:33:30;0.94;91.54
69162;DHT22;56269;51.738;21.652;2023-03-13T02:35:59;0.90;91.60
69162;DHT22;56269;51.738;21.652;2023-03-13T02:38:29;0.94;91.26
69162;DHT22;56269;51.738;21.652;2023-03-13T02:40:57;1.00;91.10
69162;DHT22;56269;51.738;21.652;2023-03-13T02:43:32;0.95;91.31
69162;DHT22;56269;51.738;21.652;2023-03-13T02:46:14;0.91;91.92
69162;DHT22;56269;51.738;21.652;2023-03-13T02:48:48;0.88;91.74
69162;DHT22;56269;51.738;21.652;2023-03-13T02:51:21;0.85;92.33
69162;DHT22;56269;51.738;21.652;2023-03-13T02:53:53;0.80;92.50
69162;DHT22;56269;51.738;21.652;2023-03-13T02:56:21;0.81;92.58
69162;DHT22;56269;51.738;21.652;2023-03-13T02:58:49;0.85;92.14
69162;DHT22;56269;51.738;21.652;2023-03-13T03:01:15;0.85;92.34
69162;DHT22;56269;51.738;21.652;2023-03-13T03:03:41;0.87;92.39
69162;DHT22;56269;51.738;21.652;2023-03-13T03:06:08;0.87;92.29
69162;DHT22;56269;51.738;21.652;2023-03-13T03:08:34;0.88;92.40
69162;DHT22;56269;51.738;21.652;2023-03-13T03:11:01;0.90;92.32
69162;DHT22;56269;51.738;21.652;2023-03-13T03:13:29;0.98;91.58
69162;DHT22;56269;51.738;21.652;2023-03-13T03:15:56;0.98;91.70
69162;DHT22;56269;51.738;21.652;2023-03-13T03:18:22;1.01;91.28
69162;DHT22;56269;51.738;21.652;2023-03-13T03:20:48;1.13;90.61
69162;DHT22;56269;51.738;21.652;2023-03-13T03:23:14;1.24;89.85
69162;DHT22;56269;51.738;21.652;2023-03-13T03:25:41;1.27;89.86
69162;DHT22;56269;51.738;21.652;2023-03-13T03:28:07;1.30;89.74
69162;DHT22;56269;51.738;21.652;2023-03-13T03:30:33;1.35;89.34
69162;DHT22;56269;51.738;21.652;2023-03-13T03:33:01;1.39;88.86
69162;DHT22;56269;51.738;21.652;2023-03-13T03:35:28;1.38;89.03
69162;DHT22;56269;51.738;21.652;2023-03-13T03:37:54;1.36;89.21
69162;DHT22;56269;51.738;21.652;2023-03-13T03:40:20;1.41;88.79
69162;DHT22;56269;51.738;21.652;2023-03-13T03:42:46;1.45;88.54
69162;DHT22;56269;51.738;21.652;2023-03-13T03:45:13;1.49;88.98
69162;DHT22;56269;51.738;21.652;2023-03-13T03:47:39;1.45;88.90
69162;DHT22;56269;51.738;21.652;2023-03-13T03:50:05;1.41;89.28
69162;DHT22;56269;51.738;21.652;2023-03-13T03:52:32;1.42;89.12
69162;DHT22;56269;51.738;21.652;2023-03-13T03:54:58;1.42;89.14
69162;DHT22;56269;51.738;21.652;2023-03-13T03:57:24;1.48;89.01
69162;DHT22;56269;51.738;21.652;2023-03-13T03:59:51;1.60;88.22
69162;DHT22;56269;51.738;21.652;2023-03-13T04:02:17;1.56;88.41
69162;DHT22;56269;51.738;21.652;2023-03-13T04:04:43;1.59;88.26
69162;DHT22;56269;51.738;21.652;2023-03-13T04:07:09;1.62;88.31
69162;DHT22;56269;51.738;21.652;2023-03-13T04:09:36;1.63;88.24
69162;DHT22;56269;51.738;21.652;2023-03-13T04:12:02;1.63;88.20
69162;DHT22;56269;51.738;21.652;2023-03-13T04:14:28;1.66;88.15
69162;DHT22;56269;51.738;21.652;2023-03-13T04:16:55;1.65;88.79
69162;DHT22;56269;51.738;21.652;2023-03-13T04:19:21;1.65;88.04
69162;DHT22;56269;51.738;21.652;2023-03-13T04:21:47;1.67;88.34
69162;DHT22;56269;51.738;21.652;2023-03-13T04:24:14;1.67;88.22
69162;DHT22;56269;51.738;21.652;2023-03-13T04:26:40;1.72;88.01
69162;DHT22;56269;51.738;21.652;2023-03-13T04:29:07;1.69;88.67
69162;DHT22;56269;51.738;21.652;2023-03-13T04:31:33;1.65;88.73
69162;DHT22;56269;51.738;21.652;2023-03-13T04:34:00;1.62;88.72
69162;DHT22;56269;51.738;21.652;2023-03-13T04:36:26;1.73;88.61
69162;DHT22;56269;51.738;21.652;2023-03-13T04:38:52;1.66;89.66
69162;DHT22;56269;51.738;21.652;2023-03-13T04:41:18;1.60;89.82
69162;DHT22;56269;51.738;21.652;2023-03-13T04:43:45;1.59;89.98
69162;DHT22;56269;51.738;21.652;2023-03-13T04:46:11;1.63;90.88
69162;DHT22;56269;51.738;21.652;2023-03-13T04:48:37;1.63;91.47
69162;DHT22;56269;51.738;21.652;2023-03-13T04:51:03;1.54;92.81
69162;DHT22;56269;51.738;21.652;2023-03-13T04:53:30;1.44;93.61
69162;DHT22;56269;51.738;21.652;2023-03-13T04:55:56;1.42;94.65
69162;DHT22;56269;51.738;21.652;2023-03-13T04:58:22;1.31;95.33
69162;DHT22;56269;51.738;21.652;2023-03-13T05:00:48;1.28;95.81
69162;DHT22;56269;51.738;21.652;2023-03-13T05:03:15;1.27;96.15
69162;DHT22;56269;51.738;21.652;2023-03-13T05:05:41;1.21;96.73
69162;DHT22;56269;51.738;21.652;2023-03-13T05:08:07;1.21;97.01
69162;DHT22;56269;51.738;21.652;2023-03-13T05:10:35;1.20;98.02
69162;DHT22;56269;51.738;21.652;2023-03-13T05:13:02;1.15;98.44
69162;DHT22;56269;51.738;21.652;2023-03-13T05:15:28;1.11;99.14
69162;DHT22;56269;51.738;21.652;2023-03-13T05:17:55;1.11;99.60
69162;DHT22;56269;51.738;21.652;2023-03-13T05:20:21;1.07;99.91
69162;DHT22;56269;51.738;21.652;2023-03-13T05:22:47;1.08;99.99
69162;DHT22;56269;51.738;21.652;2023-03-13T05:25:14;1.05;99.99
69162;DHT22;56269;51.738;21.652;2023-03-13T05:27:41;1.08;99.99
69162;DHT22;56269;51.738;21.652;2023-03-13T05:30:08;1.09;99.99
69162;DHT22;56269;51.738;21.652;2023-03-13T05:32:34;1.07;99.99
69162;DHT22;56269;51.738;21.652;2023-03-13T05:35:00;1.09;99.99
69162;DHT22;56269;51.738;21.652;2023-03-13T05:37:27;1.08;99.99
69162;DHT22;56269;51.738;21.652;2023-03-13T05:39:53;1.09;99.99
69162;DHT22;56269;51.738;21.652;2023-03-13T05:42:19;1.07;99.99
69162;DHT22;56269;51.738;21.652;2023-03-13T05:44:45;1.14;99.99
69162;DHT22;56269;51.738;21.652;2023-03-13T05:47:12;1.17;99.99
69162;DHT22;56269;51.738;21.652;2023-03-13T05:49:38;1.23;99.99
69162;DHT22;56269;51.738;21.652;2023-03-13T05:52:04;1.23;99.99
69162;DHT22;56269;51.738;21.652;2023-03-13T05:54:30;1.17;99.99
69162;DHT22;56269;51.738;21.652;2023-03-13T05:56:57;1.18;99.99
69162;DHT22;56269;51.738;21.652;2023-03-13T05:59:23;1.25;99.99
69162;DHT22;56269;51.738;21.652;2023-03-13T06:01:49;1.28;99.99
69162;DHT22;56269;51.738;21.652;2023-03-13T06:04:15;1.34;99.99
69162;DHT22;56269;51.738;21.652;2023-03-13T06:06:41;1.31;99.99
69162;DHT22;56269;51.738;21.652;2023-03-13T06:09:07;1.41;99.99
69162;DHT22;56269;51.738;21.652;2023-03-13T06:11:36;1.41;99.99
69162;DHT22;56269;51.738;21.652;2023-03-13T06:14:03;1.39;99.99
69162;DHT22;56269;51.738;21.652;2023-03-13T06:16:29;1.44;99.99
69162;DHT22;56269;51.738;21.652;2023-03-13T06:18:56;1.48;99.99
69162;DHT22;56269;51.738;21.652;2023-03-13T06:21:22;1.46;99.99
69162;DHT22;56269;51.738;21.652;2023-03-13T06:23:48;1.49;99.99
69162;DHT22;56269;51.738;21.652;2023-03-13T06:26:15;1.58;99.99
69162;DHT22;56269;51.738;21.652;2023-03-13T06:28:41;1.60;99.99
69162;DHT22;56269;51.738;21.652;2023-03-13T06:31:07;1.67;99.99
69162;DHT22;56269;51.738;21.652;2023-03-13T06:33:33;1.69;99.99
69162;DHT22;56269;51.738;21.652;2023-03-13T06:36:01;1.70;99.99
69162;DHT22;56269;51.738;21.652;2023-03-13T06:38:27;1.70;99.99
69162;DHT22;56269;51.738;21.652;2023-03-13T06:40:54;1.79;99.99
69162;DHT22;56269;51.738;21.652;2023-03-13T06:43:20;1.75;99.99
69162;DHT22;56269;51.738;21.652;2023-03-13T06:45:47;1.83;99.99
69162;DHT22;56269;51.738;21.652;2023-03-13T06:48:13;1.83;99.99
69162;DHT22;56269;51.738;21.652;2023-03-13T06:50:40;1.92;99.99
69162;DHT22;56269;51.738;21.652;2023-03-13T06:53:14;1.92;99.99
69162;DHT22;56269;51.738;21.652;2023-03-13T06:55:42;1.93;99.99
69162;DHT22;56269;51.738;21.652;2023-03-13T06:58:08;1.99;99.99
69162;DHT22;56269;51.738;21.652;2023-03-13T07:00:35;2.10;99.99
69162;DHT22;56269;51.738;21.652;2023-03-13T07:03:01;2.17;99.99
69162;DHT22;56269;51.738;21.652;2023-03-13T07:05:27;2.21;99.99
69162;DHT22;56269;51.738;21.652;2023-03-13T07:07:53;2.28;99.99
69162;DHT22;56269;51.738;21.652;2023-03-13T07:10:20;2.38;99.99
69162;DHT22;56269;51.738;21.652;2023-03-13T07:12:46;2.45;99.99
69162;DHT22;56269;51.738;21.652;2023-03-13T07:15:25;2.49;99.99
69162;DHT22;56269;51.738;21.652;2023-03-13T07:17:51;2.58;99.99
69162;DHT22;56269;51.738;21.652;2023-03-13T07:20:17;2.66;99.99
69162;DHT22;56269;51.738;21.652;2023-03-13T07:22:43;2.66;99.99
69162;DHT22;56269;51.738;21.652;2023-03-13T07:25:09;2.81;99.93
69162;DHT22;56269;51.738;21.652;2023-03-13T07:27:35;2.79;99.89
69162;DHT22;56269;51.738;21.652;2023-03-13T07:30:03;2.98;99.44
69162;DHT22;56269;51.738;21.652;2023-03-13T07:32:31;3.03;99.00
69162;DHT22;56269;51.738;21.652;2023-03-13T07:34:58;3.16;98.51
69162;DHT22;56269;51.738;21.652;2023-03-13T07:37:24;3.20;98.29
69162;DHT22;56269;51.738;21.652;2023-03-13T07:39:50;3.30;98.28
69162;DHT22;56269;51.738;21.652;2023-03-13T07:42:16;3.43;97.70
69162;DHT22;56269;51.738;21.652;2023-03-13T07:44:43;3.49;97.72
69162;DHT22;56269;51.738;21.652;2023-03-13T07:47:09;3.54;97.41
69162;DHT22;56269;51.738;21.652;2023-03-13T07:49:35;3.63;97.27
69162;DHT22;56269;51.738;21.652;2023-03-13T07:52:06;3.77;96.92
69162;DHT22;56269;51.738;21.652;2023-03-13T07:54:32;3.94;96.56
69162;DHT22;56269;51.738;21.652;2023-03-13T07:56:58;3.95;96.02
69162;DHT22;56269;51.738;21.652;2023-03-13T07:59:26;4.19;95.52
69162;DHT22;56269;51.738;21.652;2023-03-13T08:01:52;4.39;95.39
69162;DHT22;56269;51.738;21.652;2023-03-13T08:04:19;4.52;94.69
69162;DHT22;56269;51.738;21.652;2023-03-13T08:06:45;4.59;94.23
69162;DHT22;56269;51.738;21.652;2023-03-13T08:09:11;4.73;94.14
69162;DHT22;56269;51.738;21.652;2023-03-13T08:11:38;5.14;93.06
69162;DHT22;56269;51.738;21.652;2023-03-13T08:14:09;5.31;92.63
69162;DHT22;56269;51.738;21.652;2023-03-13T08:16:35;5.45;92.64
69162;DHT22;56269;51.738;21.652;2023-03-13T08:19:03;5.63;91.93
69162;DHT22;56269;51.738;21.652;2023-03-13T08:21:35;6.07;90.87
69162;DHT22;56269;51.738;21.652;2023-03-13T08:24:04;6.10;90.76
69162;DHT22;56269;51.738;21.652;2023-03-13T08:26:33;6.11;90.62
69162;DHT22;56269;51.738;21.652;2023-03-13T08:29:17;5.90;91.08
69162;DHT22;56269;51.738;21.652;2023-03-13T08:31:46;5.96;91.45
69162;DHT22;56269;51.738;21.652;2023-03-13T08:34:13;6.17;91.27
69162;DHT22;56269;51.738;21.652;2023-03-13T08:36:40;6.48;90.70
69162;DHT22;56269;51.738;21.652;2023-03-13T08:39:25;6.63;89.69
69162;DHT22;56269;51.738;21.652;2023-03-13T08:41:52;6.54;89.90
69162;DHT22;56269;51.738;21.652;2023-03-13T08:44:19;6.51;90.26
69162;DHT22;56269;51.738;21.652;2023-03-13T08:46:46;6.64;89.08
69162;DHT22;56269;51.738;21.652;2023-03-13T08:49:14;6.64;89.79
69162;DHT22;56269;51.738;21.652;2023-03-13T08:51:42;7.09;89.14
69162;DHT22;56269;51.738;21.652;2023-03-13T08:54:09;7.18;88.95
69162;DHT22;56269;51.738;21.652;2023-03-13T08:56:35;7.44;89.30
69162;DHT22;56269;51.738;21.652;2023-03-13T08:59:03;7.63;88.13
69162;DHT22;56269;51.738;21.652;2023-03-13T09:01:32;7.46;87.83
69162;DHT22;56269;51.738;21.652;2023-03-13T09:03:58;7.42;87.93
69162;DHT22;56269;51.738;21.652;2023-03-13T09:06:25;7.40;87.93
69162;DHT22;56269;51.738;21.652;2023-03-13T09:08:51;7.30;88.22
69162;DHT22;56269;51.738;21.652;2023-03-13T09:11:19;7.43;88.63
69162;DHT22;56269;51.738;21.652;2023-03-13T09:13:47;7.63;88.44
69162;DHT22;56269;51.738;21.652;2023-03-13T09:16:18;7.99;88.90
69162;DHT22;56269;51.738;21.652;2023-03-13T09:18:44;8.04;87.03
69162;DHT22;56269;51.738;21.652;2023-03-13T09:21:17;8.05;86.57
69162;DHT22;56269;51.738;21.652;2023-03-13T09:23:43;8.39;86.41
69162;DHT22;56269;51.738;21.652;2023-03-13T09:26:10;8.32;86.55
69162;DHT22;56269;51.738;21.652;2023-03-13T09:28:36;8.86;86.07
69162;DHT22;56269;51.738;21.652;2023-03-13T09:33:33;9.27;84.71
69162;DHT22;56269;51.738;21.652;2023-03-13T09:35:59;9.04;84.68
69162;DHT22;56269;51.738;21.652;2023-03-13T09:38:25;9.48;85.16
69162;DHT22;56269;51.738;21.652;2023-03-13T09:40:53;9.37;84.57
69162;DHT22;56269;51.738;21.652;2023-03-13T09:46:12;9.24;85.78
69162;DHT22;56269;51.738;21.652;2023-03-13T09:48:44;9.16;84.83
69162;DHT22;56269;51.738;21.652;2023-03-13T09:53:59;9.52;84.68
69162;DHT22;56269;51.738;21.652;2023-03-13T09:56:36;9.55;83.62
69162;DHT22;56269;51.738;21.652;2023-03-13T09:59:18;9.79;84.14
69162;DHT22;56269;51.738;21.652;2023-03-13T10:01:48;9.65;83.86
69162;DHT22;56269;51.738;21.652;2023-03-13T10:06:53;9.62;83.82
69162;DHT22;56269;51.738;21.652;2023-03-13T10:09:28;9.72;83.38
69162;DHT22;56269;51.738;21.652;2023-03-13T10:12:03;9.86;83.03
69162;DHT22;56269;51.738;21.652;2023-03-13T10:17:49;10.12;83.85
69162;DHT22;56269;51.738;21.652;2023-03-13T10:20:26;10.10;83.25
69162;DHT22;56269;51.738;21.652;2023-03-13T10:23:06;10.21;83.22
69162;DHT22;56269;51.738;21.652;2023-03-13T10:25:37;10.26;83.31
69162;DHT22;56269;51.738;21.652;2023-03-13T10:28:07;10.34;82.80
69162;DHT22;56269;51.738;21.652;2023-03-13T10:30:35;10.17;82.30
69162;DHT22;56269;51.738;21.652;2023-03-13T10:35:34;10.51;83.62
69162;DHT22;56269;51.738;21.652;2023-03-13T10:38:13;10.46;81.51
69162;DHT22;56269;51.738;21.652;2023-03-13T10:40:40;10.21;82.67
69162;DHT22;56269;51.738;21.652;2023-03-13T10:43:18;10.32;82.13
69162;DHT22;56269;51.738;21.652;2023-03-13T10:45:45;10.37;82.79
69162;DHT22;56269;51.738;21.652;2023-03-13T10:48:17;10.24;82.01
69162;DHT22;56269;51.738;21.652;2023-03-13T10:50:46;10.44;83.35
69162;DHT22;56269;51.738;21.652;2023-03-13T10:56:04;10.36;82.34
69162;DHT22;56269;51.738;21.652;2023-03-13T10:58:39;10.44;81.15
69162;DHT22;56269;51.738;21.652;2023-03-13T11:01:29;10.47;82.16
69162;DHT22;56269;51.738;21.652;2023-03-13T11:04:38;10.54;81.03
69162;DHT22;56269;51.738;21.652;2023-03-13T11:07:15;10.47;81.23
69162;DHT22;56269;51.738;21.652;2023-03-13T11:10:20;10.57;81.61
69162;DHT22;56269;51.738;21.652;2023-03-13T11:12:51;10.71;80.78
69162;DHT22;56269;51.738;21.652;2023-03-13T11:18:17;10.94;80.00
69162;DHT22;56269;51.738;21.652;2023-03-13T11:20:47;10.77;80.82
69162;DHT22;56269;51.738;21.652;2023-03-13T11:23:19;10.98;80.28
69162;DHT22;56269;51.738;21.652;2023-03-13T11:31:59;10.70;80.54
69162;DHT22;56269;51.738;21.652;2023-03-13T11:34:41;10.57;80.49
69162;DHT22;56269;51.738;21.652;2023-03-13T11:37:11;10.65;80.31
69162;DHT22;56269;51.738;21.652;2023-03-13T11:47:49;10.85;79.88
69162;DHT22;56269;51.738;21.652;2023-03-13T11:50:25;11.05;80.15
69162;DHT22;56269;51.738;21.652;2023-03-13T12:01:15;11.97;77.12
69162;DHT22;56269;51.738;21.652;2023-03-13T12:06:30;12.41;75.06
69162;DHT22;56269;51.738;21.652;2023-03-13T12:09:03;12.05;75.81
69162;DHT22;56269;51.738;21.652;2023-03-13T12:11:40;12.41;76.29
69162;DHT22;56269;51.738;21.652;2023-03-13T12:14:25;12.48;75.70
69162;DHT22;56269;51.738;21.652;2023-03-13T12:16:56;12.38;75.88
69162;DHT22;56269;51.738;21.652;2023-03-13T12:19:43;12.44;76.43
69162;DHT22;56269;51.738;21.652;2023-03-13T12:22:15;12.64;75.29
69162;DHT22;56269;51.738;21.652;2023-03-13T12:24:50;12.34;75.89
69162;DHT22;56269;51.738;21.652;2023-03-13T12:27:33;12.12;76.45
69162;DHT22;56269;51.738;21.652;2023-03-13T12:30:18;11.98;76.62
69162;DHT22;56269;51.738;21.652;2023-03-13T12:35:30;11.79;78.07
69162;DHT22;56269;51.738;21.652;2023-03-13T12:43:42;11.94;77.19
69162;DHT22;56269;51.738;21.652;2023-03-13T12:49:28;11.90;76.64
69162;DHT22;56269;51.738;21.652;2023-03-13T13:00:27;11.52;78.94
69162;DHT22;56269;51.738;21.652;2023-03-13T13:06:07;11.38;80.42
69162;DHT22;56269;51.738;21.652;2023-03-13T13:17:30;11.23;81.81
69162;DHT22;56269;51.738;21.652;2023-03-13T13:27:49;11.35;81.32
69162;DHT22;56269;51.738;21.652;2023-03-13T13:32:49;11.28;82.13
69162;DHT22;56269;51.738;21.652;2023-03-13T13:35:28;11.21;83.02
69162;DHT22;56269;51.738;21.652;2023-03-13T13:41:02;11.19;82.43
69162;DHT22;56269;51.738;21.652;2023-03-13T13:43:33;11.04;83.33
69162;DHT22;56269;51.738;21.652;2023-03-13T13:48:43;10.88;83.80
69162;DHT22;56269;51.738;21.652;2023-03-13T13:54:03;10.74;85.36
69162;DHT22;56269;51.738;21.652;2023-03-13T13:56:41;10.65;85.50
69162;DHT22;56269;51.738;21.652;2023-03-13T14:02:20;10.50;87.27
69162;DHT22;56269;51.738;21.652;2023-03-13T14:10:06;10.10;90.18
69162;DHT22;56269;51.738;21.652;2023-03-13T14:12:46;10.09;90.06
69162;DHT22;56269;51.738;21.652;2023-03-13T14:15:27;10.05;90.86
69162;DHT22;56269;51.738;21.652;2023-03-13T14:18:01;9.96;91.59
69162;DHT22;56269;51.738;21.652;2023-03-13T14:20:37;10.00;91.29
69162;DHT22;56269;51.738;21.652;2023-03-13T14:23:08;9.95;91.87
69162;DHT22;56269;51.738;21.652;2023-03-13T14:25:45;9.90;92.16
69162;DHT22;56269;51.738;21.652;2023-03-13T14:28:21;9.82;92.95
69162;DHT22;56269;51.738;21.652;2023-03-13T14:30:49;9.83;92.47
69162;DHT22;56269;51.738;21.652;2023-03-13T14:33:17;9.74;93.36
69162;DHT22;56269;51.738;21.652;2023-03-13T14:35:43;9.68;93.66
69162;DHT22;56269;51.738;21.652;2023-03-13T14:38:21;9.63;93.87
69162;DHT22;56269;51.738;21.652;2023-03-13T14:40:50;9.59;94.12
69162;DHT22;56269;51.738;21.652;2023-03-13T14:43:40;9.67;93.72
69162;DHT22;56269;51.738;21.652;2023-03-13T14:46:30;9.54;94.82
69162;DHT22;56269;51.738;21.652;2023-03-13T14:49:21;9.62;93.85
69162;DHT22;56269;51.738;21.652;2023-03-13T14:52:21;9.57;94.92
69162;DHT22;56269;51.738;21.652;2023-03-13T14:55:03;9.44;95.16
69162;DHT22;56269;51.738;21.652;2023-03-13T14:57:33;9.41;95.38
69162;DHT22;56269;51.738;21.652;2023-03-13T15:06:23;9.69;92.82
69162;DHT22;56269;51.738;21.652;2023-03-13T15:11:40;9.57;92.97
69162;DHT22;56269;51.738;21.652;2023-03-13T15:14:44;9.58;92.72
69162;DHT22;56269;51.738;21.652;2023-03-13T15:17:22;9.63;92.05
69162;DHT22;56269;51.738;21.652;2023-03-13T15:19:54;9.61;92.04
69162;DHT22;56269;51.738;21.652;2023-03-13T15:22:26;9.71;91.67
69162;DHT22;56269;51.738;21.652;2023-03-13T15:24:52;9.69;91.51
69162;DHT22;56269;51.738;21.652;2023-03-13T15:27:22;9.71;91.37
69162;DHT22;56269;51.738;21.652;2023-03-13T15:29:48;9.72;91.20
69162;DHT22;56269;51.738;21.652;2023-03-13T15:32:32;9.65;91.57
69162;DHT22;56269;51.738;21.652;2023-03-13T15:34:59;9.59;91.96
69162;DHT22;56269;51.738;21.652;2023-03-13T15:37:28;9.51;92.39
69162;DHT22;56269;51.738;21.652;2023-03-13T15:39:54;9.61;91.72
69162;DHT22;56269;51.738;21.652;2023-03-13T15:42:22;9.58;91.57
69162;DHT22;56269;51.738;21.652;2023-03-13T15:44:48;9.58;91.71
69162;DHT22;56269;51.738;21.652;2023-03-13T15:47:18;9.49;92.11
69162;DHT22;56269;51.738;21.652;2023-03-13T15:49:45;9.44;92.80
69162;DHT22;56269;51.738;21.652;2023-03-13T15:52:17;9.32;93.51
69162;DHT22;56269;51.738;21.652;2023-03-13T15:54:48;9.28;94.02
69162;DHT22;56269;51.738;21.652;2023-03-13T15:57:25;9.21;94.64
69162;DHT22;56269;51.738;21.652;2023-03-13T15:59:52;9.23;93.99
69162;DHT22;56269;51.738;21.652;2023-03-13T16:02:21;9.08;94.86
69162;DHT22;56269;51.738;21.652;2023-03-13T16:04:48;9.07;95.08
69162;DHT22;56269;51.738;21.652;2023-03-13T16:07:20;9.06;94.38
69162;DHT22;56269;51.738;21.652;2023-03-13T16:09:47;8.96;95.59
69162;DHT22;56269;51.738;21.652;2023-03-13T16:12:13;8.80;96.36
69162;DHT22;56269;51.738;21.652;2023-03-13T16:14:39;8.86;96.18
69162;DHT22;56269;51.738;21.652;2023-03-13T16:17:17;8.77;96.87
69162;DHT22;56269;51.738;21.652;2023-03-13T16:19:44;8.73;97.08
69162;DHT22;56269;51.738;21.652;2023-03-13T16:22:11;8.59;97.52
69162;DHT22;56269;51.738;21.652;2023-03-13T16:24:38;8.57;97.73
69162;DHT22;56269;51.738;21.652;2023-03-13T16:27:11;8.57;97.79
69162;DHT22;56269;51.738;21.652;2023-03-13T16:29:38;8.53;97.64
69162;DHT22;56269;51.738;21.652;2023-03-13T16:32:05;8.48;98.10
69162;DHT22;56269;51.738;21.652;2023-03-13T16:34:31;8.49;97.66
69162;DHT22;56269;51.738;21.652;2023-03-13T16:36:57;8.46;98.06
69162;DHT22;56269;51.738;21.652;2023-03-13T16:39:23;8.50;97.91
69162;DHT22;56269;51.738;21.652;2023-03-13T16:41:50;8.56;97.29
69162;DHT22;56269;51.738;21.652;2023-03-13T16:44:16;8.48;97.57
69162;DHT22;56269;51.738;21.652;2023-03-13T16:46:42;8.42;97.88
69162;DHT22;56269;51.738;21.652;2023-03-13T16:49:13;8.45;98.04
69162;DHT22;56269;51.738;21.652;2023-03-13T16:51:40;8.49;97.03
69162;DHT22;56269;51.738;21.652;2023-03-13T16:54:07;8.50;97.05
69162;DHT22;56269;51.738;21.652;2023-03-13T16:56:39;8.50;96.89
69162;DHT22;56269;51.738;21.652;2023-03-13T16:59:17;8.36;97.58
69162;DHT22;56269;51.738;21.652;2023-03-13T17:01:44;8.39;97.41
69162;DHT22;56269;51.738;21.652;2023-03-13T17:04:12;8.31;97.96
69162;DHT22;56269;51.738;21.652;2023-03-13T17:06:40;8.32;97.98
69162;DHT22;56269;51.738;21.652;2023-03-13T17:09:15;8.28;97.76
69162;DHT22;56269;51.738;21.652;2023-03-13T17:11:42;8.24;98.14
69162;DHT22;56269;51.738;21.652;2023-03-13T17:14:09;8.22;98.23
69162;DHT22;56269;51.738;21.652;2023-03-13T17:16:42;8.21;98.44
69162;DHT22;56269;51.738;21.652;2023-03-13T17:19:12;8.25;98.11
69162;DHT22;56269;51.738;21.652;2023-03-13T17:21:39;8.22;98.31
69162;DHT22;56269;51.738;21.652;2023-03-13T17:24:05;8.25;98.22
69162;DHT22;56269;51.738;21.652;2023-03-13T17:26:37;8.21;98.32
69162;DHT22;56269;51.738;21.652;2023-03-13T17:29:05;8.16;98.45
69162;DHT22;56269;51.738;21.652;2023-03-13T17:31:32;8.14;98.70
69162;DHT22;56269;51.738;21.652;2023-03-13T17:34:04;8.15;98.85
69162;DHT22;56269;51.738;21.652;2023-03-13T17:36:31;8.15;98.44
69162;DHT22;56269;51.738;21.652;2023-03-13T17:38:59;8.18;98.42
69162;DHT22;56269;51.738;21.652;2023-03-13T17:41:28;8.16;98.48